sensor_id;sensor_type;location;lat;lon;timestamp;temperature;humidity
16867;DHT22;8550;52.596;13.320;2022-11-20T00:01:37;1.10;99.90
16867;DHT22;8550;52.596;13.320;2022-11-20T00:06:39;1.10;99.90
16867;DHT22;8550;52.596;13.320;2022-11-20T00:11:41;1.10;99.90
16867;DHT22;8550;52.596;13.320;2022-11-20T00:16:45;1.00;99.90
16867;DHT22;8550;52.596;13.320;2022-11-20T00:21:47;1.10;99.90
16867;DHT22;8550;52.596;13.320;2022-11-20T00:26:51;1.10;99.90
16867;DHT22;8550;52.596;13.320;2022-11-20T00:31:55;1.10;99.90
16867;DHT22;8550;52.596;13.320;2022-11-20T00:36:56;1.00;99.90
16867;DHT22;8550;52.596;13.320;2022-11-20T00:41:58;1.00;99.90
16867;DHT22;8550;52.596;13.320;2022-11-20T00:47:02;0.90;99.90
16867;DHT22;8550;52.596;13.320;2022-11-20T00:52:04;0.90;99.90
16867;DHT22;8550;52.596;13.320;2022-11-20T00:57:06;0.90;99.90
16867;DHT22;8550;52.596;13.320;2022-11-20T01:02:09;1.00;99.90
16867;DHT22;8550;52.596;13.320;2022-11-20T01:07:11;1.00;99.90
16867;DHT22;8550;52.596;13.320;2022-11-20T01:12:13;1.00;99.90
16867;DHT22;8550;52.596;13.320;2022-11-20T01:17:16;1.00;99.90
16867;DHT22;8550;52.596;13.320;2022-11-20T01:22:18;1.00;99.90
16867;DHT22;8550;52.596;13.320;2022-11-20T01:27:20;1.00;99.90
16867;DHT22;8550;52.596;13.320;2022-11-20T01:32:23;1.00;99.90
16867;DHT22;8550;52.596;13.320;2022-11-20T01:37:25;1.00;99.90
16867;DHT22;8550;52.596;13.320;2022-11-20T01:42:27;1.00;99.90
16867;DHT22;8550;52.596;13.320;2022-11-20T01:47:48;1.00;99.90
16867;DHT22;8550;52.596;13.320;2022-11-20T01:52:53;1.00;99.90
16867;DHT22;8550;52.596;13.320;2022-11-20T01:57:56;0.90;99.90
16867;DHT22;8550;52.596;13.320;2022-11-20T02:03:05;1.00;99.90
16867;DHT22;8550;52.596;13.320;2022-11-20T02:08:07;1.00;99.90
16867;DHT22;8550;52.596;13.320;2022-11-20T02:13:09;1.10;99.90
16867;DHT22;8550;52.596;13.320;2022-11-20T02:18:30;1.00;99.90
16867;DHT22;8550;52.596;13.320;2022-11-20T02:23:36;0.90;99.90
16867;DHT22;8550;52.596;13.320;2022-11-20T02:28:41;1.00;99.90
16867;DHT22;8550;52.596;13.320;2022-11-20T02:33:43;1.00;99.90
16867;DHT22;8550;52.596;13.320;2022-11-20T02:38:45;1.00;99.90
16867;DHT22;8550;52.596;13.320;2022-11-20T02:43:48;1.00;99.90
16867;DHT22;8550;52.596;13.320;2022-11-20T02:48:50;1.00;99.90
16867;DHT22;8550;52.596;13.320;2022-11-20T02:53:52;1.00;99.90
16867;DHT22;8550;52.596;13.320;2022-11-20T02:58:56;1.00;99.90
16867;DHT22;8550;52.596;13.320;2022-11-20T03:03:57;1.10;99.90
16867;DHT22;8550;52.596;13.320;2022-11-20T03:09:00;1.00;99.90
16867;DHT22;8550;52.596;13.320;2022-11-20T03:14:04;1.00;99.90
16867;DHT22;8550;52.596;13.320;2022-11-20T03:19:07;1.00;99.90
16867;DHT22;8550;52.596;13.320;2022-11-20T03:24:09;1.00;99.90
16867;DHT22;8550;52.596;13.320;2022-11-20T03:29:12;0.90;99.90
16867;DHT22;8550;52.596;13.320;2022-11-20T03:34:14;0.90;99.90
16867;DHT22;8550;52.596;13.320;2022-11-20T03:39:16;0.90;99.90
16867;DHT22;8550;52.596;13.320;2022-11-20T03:44:21;0.90;99.90
16867;DHT22;8550;52.596;13.320;2022-11-20T03:49:23;0.90;99.90
16867;DHT22;8550;52.596;13.320;2022-11-20T03:54:25;0.90;99.90
16867;DHT22;8550;52.596;13.320;2022-11-20T03:59:28;0.90;99.90
16867;DHT22;8550;52.596;13.320;2022-11-20T04:04:30;0.80;99.90
16867;DHT22;8550;52.596;13.320;2022-11-20T04:09:32;0.90;99.90
16867;DHT22;8550;52.596;13.320;2022-11-20T04:14:35;0.80;99.90
16867;DHT22;8550;52.596;13.320;2022-11-20T04:19:37;0.80;99.90
16867;DHT22;8550;52.596;13.320;2022-11-20T04:24:39;0.80;99.90
16867;DHT22;8550;52.596;13.320;2022-11-20T04:29:42;0.80;99.90
16867;DHT22;8550;52.596;13.320;2022-11-20T04:34:44;0.80;99.90
16867;DHT22;8550;52.596;13.320;2022-11-20T04:39:46;0.70;99.90
16867;DHT22;8550;52.596;13.320;2022-11-20T04:44:49;0.70;99.90
16867;DHT22;8550;52.596;13.320;2022-11-20T04:49:51;0.60;99.90
16867;DHT22;8550;52.596;13.320;2022-11-20T04:54:53;0.60;99.90
16867;DHT22;8550;52.596;13.320;2022-11-20T04:59:57;0.50;99.90
16867;DHT22;8550;52.596;13.320;2022-11-20T05:04:59;0.70;99.90
16867;DHT22;8550;52.596;13.320;2022-11-20T05:10:00;0.60;99.90
16867;DHT22;8550;52.596;13.320;2022-11-20T05:15:04;0.60;99.90
16867;DHT22;8550;52.596;13.320;2022-11-20T05:20:07;0.70;99.90
16867;DHT22;8550;52.596;13.320;2022-11-20T05:25:10;0.70;99.90
16867;DHT22;8550;52.596;13.320;2022-11-20T05:30:14;0.70;99.90
16867;DHT22;8550;52.596;13.320;2022-11-20T05:35:16;0.70;99.90
16867;DHT22;8550;52.596;13.320;2022-11-20T05:40:18;0.70;99.90
16867;DHT22;8550;52.596;13.320;2022-11-20T05:45:21;0.80;99.90
16867;DHT22;8550;52.596;13.320;2022-11-20T05:50:23;0.80;99.90
16867;DHT22;8550;52.596;13.320;2022-11-20T05:55:25;0.80;99.90
16867;DHT22;8550;52.596;13.320;2022-11-20T06:00:28;0.70;99.90
16867;DHT22;8550;52.596;13.320;2022-11-20T06:05:30;0.80;99.90
16867;DHT22;8550;52.596;13.320;2022-11-20T06:10:32;0.80;99.90
16867;DHT22;8550;52.596;13.320;2022-11-20T06:15:35;0.90;99.90
16867;DHT22;8550;52.596;13.320;2022-11-20T06:20:37;0.90;99.90
16867;DHT22;8550;52.596;13.320;2022-11-20T06:25:39;0.90;99.90
16867;DHT22;8550;52.596;13.320;2022-11-20T06:30:46;0.80;99.90
16867;DHT22;8550;52.596;13.320;2022-11-20T06:35:48;0.80;99.90
16867;DHT22;8550;52.596;13.320;2022-11-20T06:40:50;0.80;99.90
16867;DHT22;8550;52.596;13.320;2022-11-20T06:45:54;0.80;99.90
16867;DHT22;8550;52.596;13.320;2022-11-20T06:50:56;0.80;99.90
16867;DHT22;8550;52.596;13.320;2022-11-20T06:55:58;0.90;99.90
16867;DHT22;8550;52.596;13.320;2022-11-20T07:01:03;0.90;99.90
16867;DHT22;8550;52.596;13.320;2022-11-20T07:06:06;0.90;99.90
16867;DHT22;8550;52.596;13.320;2022-11-20T07:11:08;1.00;99.90
16867;DHT22;8550;52.596;13.320;2022-11-20T07:16:11;1.00;99.90
16867;DHT22;8550;52.596;13.320;2022-11-20T07:21:13;1.10;99.90
16867;DHT22;8550;52.596;13.320;2022-11-20T07:26:16;1.10;99.90
16867;DHT22;8550;52.596;13.320;2022-11-20T07:31:19;1.10;99.90
16867;DHT22;8550;52.596;13.320;2022-11-20T07:36:21;1.10;99.90
16867;DHT22;8550;52.596;13.320;2022-11-20T07:41:23;1.20;99.90
16867;DHT22;8550;52.596;13.320;2022-11-20T07:46:26;1.20;99.90
16867;DHT22;8550;52.596;13.320;2022-11-20T07:51:28;1.20;99.90
16867;DHT22;8550;52.596;13.320;2022-11-20T07:56:30;1.30;99.90
16867;DHT22;8550;52.596;13.320;2022-11-20T08:01:33;1.40;99.90
16867;DHT22;8550;52.596;13.320;2022-11-20T08:06:35;1.40;99.90
16867;DHT22;8550;52.596;13.320;2022-11-20T08:11:37;1.40;99.90
16867;DHT22;8550;52.596;13.320;2022-11-20T08:16:58;1.30;99.90
16867;DHT22;8550;52.596;13.320;2022-11-20T08:22:00;1.30;99.90
16867;DHT22;8550;52.596;13.320;2022-11-20T08:27:02;1.40;99.90
16867;DHT22;8550;52.596;13.320;2022-11-20T08:32:05;1.40;99.90
16867;DHT22;8550;52.596;13.320;2022-11-20T08:37:08;1.30;99.90
16867;DHT22;8550;52.596;13.320;2022-11-20T08:42:10;1.20;99.90
16867;DHT22;8550;52.596;13.320;2022-11-20T08:47:13;1.30;99.90
16867;DHT22;8550;52.596;13.320;2022-11-20T08:52:15;1.40;99.90
16867;DHT22;8550;52.596;13.320;2022-11-20T08:57:17;1.40;99.90
16867;DHT22;8550;52.596;13.320;2022-11-20T09:02:20;1.40;99.90
16867;DHT22;8550;52.596;13.320;2022-11-20T09:07:22;1.50;99.90
16867;DHT22;8550;52.596;13.320;2022-11-20T09:12:24;1.50;99.90
16867;DHT22;8550;52.596;13.320;2022-11-20T09:17:27;1.50;99.90
16867;DHT22;8550;52.596;13.320;2022-11-20T09:22:29;1.40;99.90
16867;DHT22;8550;52.596;13.320;2022-11-20T09:27:31;1.50;99.90
16867;DHT22;8550;52.596;13.320;2022-11-20T09:32:34;1.60;99.90
16867;DHT22;8550;52.596;13.320;2022-11-20T09:37:36;1.70;99.90
16867;DHT22;8550;52.596;13.320;2022-11-20T09:42:41;1.70;99.90
16867;DHT22;8550;52.596;13.320;2022-11-20T09:48:02;1.80;99.90
16867;DHT22;8550;52.596;13.320;2022-11-20T09:53:13;1.80;99.90
16867;DHT22;8550;52.596;13.320;2022-11-20T09:58:26;1.90;99.90
16867;DHT22;8550;52.596;13.320;2022-11-20T10:03:39;1.90;99.90
16867;DHT22;8550;52.596;13.320;2022-11-20T10:08:45;2.00;99.90
16867;DHT22;8550;52.596;13.320;2022-11-20T10:13:59;1.90;99.90
16867;DHT22;8550;52.596;13.320;2022-11-20T10:19:15;2.00;99.90
16867;DHT22;8550;52.596;13.320;2022-11-20T10:24:44;2.10;99.90
16867;DHT22;8550;52.596;13.320;2022-11-20T10:30:00;2.00;99.90
16867;DHT22;8550;52.596;13.320;2022-11-20T10:35:07;2.00;99.90
16867;DHT22;8550;52.596;13.320;2022-11-20T10:40:21;2.10;99.90
16867;DHT22;8550;52.596;13.320;2022-11-20T10:45:38;2.30;99.90
16867;DHT22;8550;52.596;13.320;2022-11-20T10:50:49;2.30;99.90
16867;DHT22;8550;52.596;13.320;2022-11-20T10:55:56;2.40;99.90
16867;DHT22;8550;52.596;13.320;2022-11-20T11:01:03;2.30;99.90
16867;DHT22;8550;52.596;13.320;2022-11-20T11:06:13;2.20;99.90
16867;DHT22;8550;52.596;13.320;2022-11-20T11:11:21;2.10;99.90
16867;DHT22;8550;52.596;13.320;2022-11-20T11:16:26;2.00;99.90
16867;DHT22;8550;52.596;13.320;2022-11-20T11:21:29;2.00;99.90
16867;DHT22;8550;52.596;13.320;2022-11-20T11:26:31;2.10;99.90
16867;DHT22;8550;52.596;13.320;2022-11-20T11:31:34;2.10;99.90
16867;DHT22;8550;52.596;13.320;2022-11-20T11:36:38;2.00;99.90
16867;DHT22;8550;52.596;13.320;2022-11-20T11:41:40;2.00;99.90
16867;DHT22;8550;52.596;13.320;2022-11-20T11:46:50;1.90;99.90
16867;DHT22;8550;52.596;13.320;2022-11-20T11:52:03;1.70;99.90
16867;DHT22;8550;52.596;13.320;2022-11-20T11:57:12;1.70;99.90
16867;DHT22;8550;52.596;13.320;2022-11-20T12:02:24;1.80;99.90
16867;DHT22;8550;52.596;13.320;2022-11-20T12:07:39;1.80;99.90
16867;DHT22;8550;52.596;13.320;2022-11-20T12:12:44;1.80;99.90
16867;DHT22;8550;52.596;13.320;2022-11-20T12:17:54;1.90;99.90
16867;DHT22;8550;52.596;13.320;2022-11-20T12:23:04;1.90;99.90
16867;DHT22;8550;52.596;13.320;2022-11-20T12:33:40;2.10;99.90
16867;DHT22;8550;52.596;13.320;2022-11-20T12:44:24;2.30;99.90
16867;DHT22;8550;52.596;13.320;2022-11-20T12:49:55;2.20;99.90
16867;DHT22;8550;52.596;13.320;2022-11-20T12:55:16;2.40;99.90
16867;DHT22;8550;52.596;13.320;2022-11-20T13:00:20;2.90;99.90
16867;DHT22;8550;52.596;13.320;2022-11-20T13:05:25;3.00;99.90
16867;DHT22;8550;52.596;13.320;2022-11-20T13:10:33;2.70;99.90
16867;DHT22;8550;52.596;13.320;2022-11-20T13:15:47;2.90;99.90
16867;DHT22;8550;52.596;13.320;2022-11-20T13:20:49;2.70;99.90
16867;DHT22;8550;52.596;13.320;2022-11-20T13:26:05;2.50;99.90
16867;DHT22;8550;52.596;13.320;2022-11-20T13:31:25;2.50;99.90
16867;DHT22;8550;52.596;13.320;2022-11-20T13:36:30;2.40;99.90
16867;DHT22;8550;52.596;13.320;2022-11-20T13:41:35;2.30;99.90
16867;DHT22;8550;52.596;13.320;2022-11-20T13:46:40;2.20;99.90
16867;DHT22;8550;52.596;13.320;2022-11-20T13:51:46;1.90;99.90
16867;DHT22;8550;52.596;13.320;2022-11-20T13:56:55;1.70;99.90
16867;DHT22;8550;52.596;13.320;2022-11-20T14:02:01;1.60;99.90
16867;DHT22;8550;52.596;13.320;2022-11-20T14:07:05;1.60;99.90
16867;DHT22;8550;52.596;13.320;2022-11-20T14:12:16;1.60;99.90
16867;DHT22;8550;52.596;13.320;2022-11-20T14:17:21;1.60;99.90
16867;DHT22;8550;52.596;13.320;2022-11-20T14:22:25;1.60;99.90
16867;DHT22;8550;52.596;13.320;2022-11-20T14:27:28;1.60;99.90
16867;DHT22;8550;52.596;13.320;2022-11-20T14:32:31;1.60;99.90
16867;DHT22;8550;52.596;13.320;2022-11-20T14:37:37;1.60;99.90
16867;DHT22;8550;52.596;13.320;2022-11-20T14:42:43;1.60;99.90
16867;DHT22;8550;52.596;13.320;2022-11-20T14:47:45;1.60;99.90
16867;DHT22;8550;52.596;13.320;2022-11-20T14:52:52;1.60;99.90
16867;DHT22;8550;52.596;13.320;2022-11-20T14:57:57;1.70;99.90
16867;DHT22;8550;52.596;13.320;2022-11-20T15:02:59;1.70;99.90
16867;DHT22;8550;52.596;13.320;2022-11-20T15:08:07;1.70;99.90
16867;DHT22;8550;52.596;13.320;2022-11-20T15:13:14;1.70;99.90
16867;DHT22;8550;52.596;13.320;2022-11-20T15:18:20;1.60;99.90
16867;DHT22;8550;52.596;13.320;2022-11-20T15:23:26;1.60;99.90
16867;DHT22;8550;52.596;13.320;2022-11-20T15:28:31;1.60;99.90
16867;DHT22;8550;52.596;13.320;2022-11-20T15:33:34;1.70;99.90
16867;DHT22;8550;52.596;13.320;2022-11-20T15:38:37;1.80;99.90
16867;DHT22;8550;52.596;13.320;2022-11-20T15:43:40;1.70;99.90
16867;DHT22;8550;52.596;13.320;2022-11-20T15:48:44;1.70;99.90
16867;DHT22;8550;52.596;13.320;2022-11-20T15:53:46;1.70;99.90
16867;DHT22;8550;52.596;13.320;2022-11-20T15:58:49;1.70;99.90
16867;DHT22;8550;52.596;13.320;2022-11-20T16:03:51;1.60;99.90
16867;DHT22;8550;52.596;13.320;2022-11-20T16:08:53;1.30;99.90
16867;DHT22;8550;52.596;13.320;2022-11-20T16:13:56;1.20;99.90
16867;DHT22;8550;52.596;13.320;2022-11-20T16:19:16;1.10;99.90
16867;DHT22;8550;52.596;13.320;2022-11-20T16:24:19;1.00;99.90
16867;DHT22;8550;52.596;13.320;2022-11-20T16:29:22;1.00;99.90
16867;DHT22;8550;52.596;13.320;2022-11-20T16:34:24;1.00;99.90
16867;DHT22;8550;52.596;13.320;2022-11-20T16:39:26;1.00;99.90
16867;DHT22;8550;52.596;13.320;2022-11-20T16:44:29;1.00;99.90
16867;DHT22;8550;52.596;13.320;2022-11-20T16:49:31;1.00;99.90
16867;DHT22;8550;52.596;13.320;2022-11-20T16:54:33;1.00;99.90
16867;DHT22;8550;52.596;13.320;2022-11-20T16:59:37;1.00;99.90
16867;DHT22;8550;52.596;13.320;2022-11-20T17:04:39;1.20;99.90
16867;DHT22;8550;52.596;13.320;2022-11-20T17:09:41;1.10;99.90
16867;DHT22;8550;52.596;13.320;2022-11-20T17:14:44;1.20;99.90
16867;DHT22;8550;52.596;13.320;2022-11-20T17:19:46;1.30;99.90
16867;DHT22;8550;52.596;13.320;2022-11-20T17:24:48;1.30;99.90
16867;DHT22;8550;52.596;13.320;2022-11-20T17:29:51;1.40;99.90
16867;DHT22;8550;52.596;13.320;2022-11-20T17:34:54;1.40;99.90
16867;DHT22;8550;52.596;13.320;2022-11-20T17:39:58;1.50;99.90
16867;DHT22;8550;52.596;13.320;2022-11-20T17:45:02;1.50;99.90
16867;DHT22;8550;52.596;13.320;2022-11-20T17:50:04;1.40;99.90
16867;DHT22;8550;52.596;13.320;2022-11-20T17:55:07;1.40;99.90
16867;DHT22;8550;52.596;13.320;2022-11-20T18:00:11;1.50;99.90
16867;DHT22;8550;52.596;13.320;2022-11-20T18:05:16;1.50;99.90
16867;DHT22;8550;52.596;13.320;2022-11-20T18:10:18;1.50;99.90
16867;DHT22;8550;52.596;13.320;2022-11-20T18:15:21;1.50;99.90
16867;DHT22;8550;52.596;13.320;2022-11-20T18:20:23;1.50;99.90
16867;DHT22;8550;52.596;13.320;2022-11-20T18:25:25;1.50;99.90
16867;DHT22;8550;52.596;13.320;2022-11-20T18:30:28;1.60;99.90
16867;DHT22;8550;52.596;13.320;2022-11-20T18:35:30;1.50;99.90
16867;DHT22;8550;52.596;13.320;2022-11-20T18:40:33;1.50;99.90
16867;DHT22;8550;52.596;13.320;2022-11-20T18:45:37;1.40;99.90
16867;DHT22;8550;52.596;13.320;2022-11-20T18:50:38;1.40;99.90
16867;DHT22;8550;52.596;13.320;2022-11-20T18:55:40;1.30;99.90
16867;DHT22;8550;52.596;13.320;2022-11-20T19:00:44;1.20;99.90
16867;DHT22;8550;52.596;13.320;2022-11-20T19:05:46;1.20;99.90
16867;DHT22;8550;52.596;13.320;2022-11-20T19:10:48;1.20;99.90
16867;DHT22;8550;52.596;13.320;2022-11-20T19:15:51;1.10;99.90
16867;DHT22;8550;52.596;13.320;2022-11-20T19:20:53;1.10;99.90
16867;DHT22;8550;52.596;13.320;2022-11-20T19:25:57;1.00;99.90
16867;DHT22;8550;52.596;13.320;2022-11-20T19:31:03;0.90;99.90
16867;DHT22;8550;52.596;13.320;2022-11-20T19:36:11;0.90;99.90
16867;DHT22;8550;52.596;13.320;2022-11-20T19:41:19;1.00;99.90
16867;DHT22;8550;52.596;13.320;2022-11-20T19:46:23;1.00;99.90
16867;DHT22;8550;52.596;13.320;2022-11-20T19:51:27;1.00;99.90
16867;DHT22;8550;52.596;13.320;2022-11-20T19:56:30;0.90;99.90
16867;DHT22;8550;52.596;13.320;2022-11-20T20:01:34;0.90;99.90
16867;DHT22;8550;52.596;13.320;2022-11-20T20:06:37;0.90;99.90
16867;DHT22;8550;52.596;13.320;2022-11-20T20:11:40;0.80;99.90
16867;DHT22;8550;52.596;13.320;2022-11-20T20:16:46;0.70;99.90
16867;DHT22;8550;52.596;13.320;2022-11-20T20:21:49;0.60;99.90
16867;DHT22;8550;52.596;13.320;2022-11-20T20:26:51;0.50;99.90
16867;DHT22;8550;52.596;13.320;2022-11-20T20:31:54;0.50;99.90
16867;DHT22;8550;52.596;13.320;2022-11-20T20:36:56;0.40;99.90
16867;DHT22;8550;52.596;13.320;2022-11-20T20:41:58;0.50;99.90
16867;DHT22;8550;52.596;13.320;2022-11-20T20:47:01;0.50;99.90
16867;DHT22;8550;52.596;13.320;2022-11-20T20:52:04;0.50;99.90
16867;DHT22;8550;52.596;13.320;2022-11-20T20:57:07;0.40;99.90
16867;DHT22;8550;52.596;13.320;2022-11-20T21:02:13;0.40;99.90
16867;DHT22;8550;52.596;13.320;2022-11-20T21:07:15;0.30;99.90
16867;DHT22;8550;52.596;13.320;2022-11-20T21:12:17;0.20;99.90
16867;DHT22;8550;52.596;13.320;2022-11-20T21:17:21;0.00;99.90
16867;DHT22;8550;52.596;13.320;2022-11-20T21:22:23;-0.10;99.90
16867;DHT22;8550;52.596;13.320;2022-11-20T21:27:24;-0.10;99.90
16867;DHT22;8550;52.596;13.320;2022-11-20T21:32:32;-0.20;99.90
16867;DHT22;8550;52.596;13.320;2022-11-20T21:37:34;-0.20;99.90
16867;DHT22;8550;52.596;13.320;2022-11-20T21:42:36;-0.30;99.90
16867;DHT22;8550;52.596;13.320;2022-11-20T21:47:39;-0.30;99.90
16867;DHT22;8550;52.596;13.320;2022-11-20T21:52:45;-0.30;99.90
16867;DHT22;8550;52.596;13.320;2022-11-20T21:57:49;-0.40;99.90
16867;DHT22;8550;52.596;13.320;2022-11-20T22:02:52;-0.40;99.90
16867;DHT22;8550;52.596;13.320;2022-11-20T22:07:56;-0.50;99.90
16867;DHT22;8550;52.596;13.320;2022-11-20T22:12:58;-0.50;99.90
16867;DHT22;8550;52.596;13.320;2022-11-20T22:18:18;-0.50;99.90
16867;DHT22;8550;52.596;13.320;2022-11-20T22:23:22;-0.60;99.90
16867;DHT22;8550;52.596;13.320;2022-11-20T22:28:23;-0.80;99.90
16867;DHT22;8550;52.596;13.320;2022-11-20T22:33:27;-0.80;99.90
16867;DHT22;8550;52.596;13.320;2022-11-20T22:38:30;-0.80;99.90
16867;DHT22;8550;52.596;13.320;2022-11-20T22:43:33;-0.90;99.90
16867;DHT22;8550;52.596;13.320;2022-11-20T22:48:37;-0.90;99.90
16867;DHT22;8550;52.596;13.320;2022-11-20T22:53:40;-1.00;99.90
16867;DHT22;8550;52.596;13.320;2022-11-20T22:58:43;-1.10;99.90
16867;DHT22;8550;52.596;13.320;2022-11-20T23:03:48;-1.20;99.90
16867;DHT22;8550;52.596;13.320;2022-11-20T23:08:50;-1.20;99.90
16867;DHT22;8550;52.596;13.320;2022-11-20T23:13:53;-1.30;99.90
16867;DHT22;8550;52.596;13.320;2022-11-20T23:19:00;-1.30;99.90
16867;DHT22;8550;52.596;13.320;2022-11-20T23:24:04;-1.20;99.90
16867;DHT22;8550;52.596;13.320;2022-11-20T23:29:07;-1.20;99.90
16867;DHT22;8550;52.596;13.320;2022-11-20T23:34:10;-1.20;99.90
16867;DHT22;8550;52.596;13.320;2022-11-20T23:39:12;-1.10;99.90
16867;DHT22;8550;52.596;13.320;2022-11-20T23:44:18;-1.00;99.90
16867;DHT22;8550;52.596;13.320;2022-11-20T23:49:21;-1.00;99.90
16867;DHT22;8550;52.596;13.320;2022-11-20T23:54:23;-0.80;99.90
16867;DHT22;8550;52.596;13.320;2022-11-20T23:59:25;-0.70;99.90
